Quake List 2013

List of significant Earthquakes Magnitude 6.0+ (Latest First) Based on USGS Listings
The heading link takes you to the USGS pages for the event. The links in the event lists take you to the relevant page in this blog. ‡ against a month name means checked against ANSS.

Jan Feb Mar Apr May Jun
Jul Aug Sep Oct Nov Dec

Changed magnitudes are marked with ↓ or ↑ and the details are in italics with the changed value e.g. 6.0 in bold. This page is NOT an instant update page and it may be 12-24 hrs before details appear especially if the initial determination is uncertain.

Year To Date Counts: Mag 6: 119{!120} Mag 7: 17 Mag 8: 2 Mag 9: 0

December 2013

December 2013 Counts: Mag 6: 4 Mag 7: 0 Mag 8: 0 Mag 9: 0

Date/Time UTC,Latitude,Longitude,Magnitude,Depth(Km),Location
2013-12-17 23:38:08, 20.763, 146.759, 6.2, 16.0, Mariana Isls. Region (215) {Map}
2013-12-08 17:24:53, 44.509, 149.071, 6.0 (5.9mb), 25.4, Kuril Isls. (221) {Map}
2013-12-01 06:29:57, 2.063, 96.851, 6.0, 11.2, Northern Sumatra. Ind. (706) {F} {Map}
2013-12-01 01:24:13, -7.013, 128.375, 6.4, 10.0, Banda Sea (280) {F} {Map}

November 2013

November 2013 Counts: Mag 6: 8(+1) Mag 7: 2 Mag 8: 0 Mag 9: 0

Date/Time UTC,Latitude,Longitude,Magnitude,Depth(Km),Location
2013-11-25 06:27:33, -53.881, -54.882, 7.0, 10.0, South Atlantic Ocean (409) {Map}
2013-11-23 07:48:32, -17.097, -176.561, 6.5, 377.0, Fiji Isls. Region (181) {F} {Map}
2013-11-19 17:00:44, 18.483, 145.185, 6.0, 511.0, Mariana Isls. (216) {Map}
2013-11-19 13:32:51, 2.689, 128.460, 6.0, 38.7, Halmahera. Ind. (267) {Map}
2013-11-17 09:04:55, -60.295, -46.362, 7.7, 10.0, Scotia Sea (150) {Map}
2013-11-16 03:34:31, -60.213, -47.107, 6.8, 9.9, Scotia Sea (150) {Map}
2013-11-13 23:45:48, -60.261, -47.196, 6.1, 10.0, Scotia Sea (150) {Map}
2013-11-12 07:03:51, 54.681, 162.286, 6.4, 47.1, Nr. E. Coast Of Kamchatka (218) {Map}
2013-11-02 18:53:46, -19.128, -172.633, 6.2, 10.0, Tonga Isls. Region (174) {F}{T} {Map}
2013-11-02 15:52:46, -23.566, -112.610, 5.8, 5.3, Easter Island Region (685) {Map}
(This quake above is 5.8mb on USGS but EMSC and GFZ have it at 6.0 Mw. 5.8mb = ~6.05Mw. It will probably change)


Downgrades under 6.0 for November

October 2013

October 2013 Counts: Mag 6: 13 Mag 7: 1 Mag 8: 0 Mag 9: 0

Date/Time UTC,Latitude,Longitude,Magnitude,Depth(Km),Location
2013-10-30 02:51:51, -35.413, -72.368, 6.2, 18.3, Nr. Coast Of Central Chile (135) {Map}
2013-10-29 10:37:55, -61.694, 154.730, 6.0, 9.9, Balleny Isls. Region (702) {Map}
2013-10-25 17:10:18, 37.149, 144.678, 7.1, 26.0, Off E. Coast Of Honshu. Japan (229) {Map}
2013-10-24 19:25:12, -58.208, -12.950, 6.7, 26.0, East Of South Sandwich Isls. (732) {Map}
2013-10-19 17:54:56, 26.267, -110.177, 6.5, 7.9, Gulf Of California (49) {Map}
2013-10-16 10:31:00, -6.487, 154.928, 6.8, 54.0, Solomon Isls. (193) {Map}
2013-10-15 00:12:32, 9.866, 124.011, 6.9, 20.0, Mindanao. Philippines (259) {Map}
2013-10-12 13:11:52, 35.486, 23.260, 6.4, 36.1, Crete. Greece (370) {Map}
2013-10-12 02:10:29, 10.876, -62.278, 6.1, 79.4, Nr. Coast Of Venezuela (97) {Map}
2013-10-11 21:24:58, -30.751, -178.438, 6.2, 146.5, Kermadec Isls. Nz (178) {Map}
2013-10-06 21:33:19, -36.679, -97.512, 6.2, 10.0, West Chile Rise (686) {Map}
2013-10-06 16:38:09, 12.297, 141.677, 6.0, 109.6, South Of Mariana Isls. (210) {Map}
2013-10-04 17:26:17, -38.767, 78.475, 6.4 Mw, 33.0, Mid Indian Ridge (429) {Map}
2013-10-01 03:38:21, 53.173, 152.766, 6.7, 578.2, Sea Of Okhotsk (663) {Map}

September 2013

September 2013 Counts: Mag 6: 13 Mag 7: 2 Mag 8: 0 Mag 9: 0

Date/Time UTC,Latitude,Longitude,Magnitude,Depth(Km),Location
2013-09-30 05:55:54, -30.956, -178.244, 6.7, 34.7, Kermedec Islands {Map}
2013-09-28 07:34:07, 27.262, 65.586, 6.8, 14.7, 96Km Nne Of Awaran. Pakistan {Map}
2013-09-25 16:42:43, -15.850, -74.562, 7.0, 45.7, Near The Southern Coast Of Peru {Map}
2013-09-24 11:29:48, 26.999, 65.514, 7.7, 20.0, Pakistan {Map}
2013-09-21 01:39:14, -7.264, 119.960, 6.1, 536.8, Flores Sea. Ind. {Map}
2013-09-15 16:21:36, 51.546, -174.677, 6.1, 22.3, Andreanoff Isls. Aleutian Isls. {Map}
2013-09-07 00:13:29, 14.643, -92.104, 6.6, 67.0, Guatemala {Map}
*2013-09-06 11:33:53, 20.188, 122.314, 6.0, 178.0, Philippine Islands Region {Map}
*2013-09-05 12:29:15, 10.585, -86.106, 6.0, 18.0, Off Coast Of Costa Rica {Map}
2013-09-04 06:27:05, 51.569, -174.986, 6.2, 32.8, Andreanof Isls. Aleutian Isls. {Map}
2013-09-04 02:32:33, 51.591, -174.759, 6.3, 39.8, Andreanof Isls. Aleutian Isls. {Map}
2013-09-04 00:18:24, 30.006, 138.789, 6.5, 407.0, Izu Isls. Japan Region {Map}
2013-09-03 20:19:06, 51.197, -130.404, 6.0, 1.0, Queen Charlotte Islands Region {Map}
*2013-09-02 04:30:18, -6.564, 155.057, 6.1, 49.4, Solomon Islands {Map}
2013-09-01 11:52:32, -7.541, 128.278, 6.5, 132.1, Banda Sea {Map}
*suspect. No other providers agree with USGS


Downgrades under 6.0 for September

August 2013‡

August 2013 Counts: Mag 6: 10 Mag 7: 1 Mag 8: 0 Mag 9: 0

Date/Time UTC,Latitude,Longitude,Magnitude,Depth(Km),Location
2013-08-30 16:25:02, 51.609, -175.361, 7.0, 33.5, 94Km Ese Of Adak. Alaska {Map}
2013-08-28 02:54:41, -27.795, 179.672, 6.1, 488.6, 288Km Nw Of Raoul Island. Nz {Map}
2013-08-21 12:38:30, 16.916, -99.381, 6.2, 20.0, Guerrero. Mexico {Map}
2013-08-17 16:32:31, -34.883, 54.067, 6.1, 10.0, S.West Indian Ridge {Map}
2013-08-16 02:31:07, -41.766, 174.060, 6.5, 10.0, Cook Strait. New Zealand {Map}
12013-08-13 15:43:15, 5.780, -78.174, 6.7(6.6), 12.0, South Of Panama
2013-08-12 09:49:33, -5.409, -81.908, 6.2, 16.6, Nr Coast Of Nthrn Peru {Map}
2013-08-12 04:16:49, -30.540, -179.700, 6.0, 339.0, Kermadec Isls. Region {Map}
2013-08-12 00:53:43, -7.122, 129.810, 6.0, 91.9, Banda Sea {Map}
2013-08-01 20:01:44, -15.299, -173.540, 6.0, 30.0, Tonga Islands {Map}


ANSS data for August (Last checked: 26 Apr 2014)

DateTime,Latitude,Longitude,Depth,Magnitude,MagType,NbStations,Gap,Distance,RMS,Source,EventID
2013/08/30 16:25:02.77,51.6096,-175.3611,33.53,7.00,Mw,150,32,1,1.00,NEI,2013083020
2013/08/28 02:54:41.92,-27.7953,179.6722,488.61,6.10,Mw,136,31,3,1.48,NEI,2013082820
2013/08/21 12:38:29.47,16.8451,-99.5286,21.00,6.20,Mw,,45,1,1.09,us,2013082120
2013/08/17 16:32:31.41,-34.8853,54.0927,10.00,6.10,Mw,,22,15,0.83,us,2013081720
2013/08/16 02:31:05.75,-41.7340,174.1520,8.20,6.50,Mw,,,,1.19,us_,2013081620
12013/08/13 15:43:15.20,5.7732,-78.1999,12.00,6.70,Mw,,22,4,0.84,us,2013081320
2013/08/12 09:49:32.36,-5.3962,-81.9268,10.00,6.20,Mw,,26,4,1.27,us,2013081220
2013/08/12 04:16:46.56,-30.6205,-179.6134,325.19,6.00,Mw,173,20,7,1.06,NEI,2013081220
2013/08/12 00:53:43.98,-7.1354,129.8088,95.00,6.00,Mw,,13,2,0.68,us,2013081220
2013/08/01 20:01:43.16,-15.2443,-173.5006,31.65,6.00,Mw,,38,2,0.67,us,2013080120

July 2013‡

July 2013 Counts: Mag 6: 10 Mag 7: 2 Mag 8: 0 Mag 9: 0

Date/Time UTC,Latitude,Longitude,Magnitude,Depth(Km),Location
2013-07-26 21:32:59, -57.789, -23.959, 6.2, 10.0, South Sandwich Islands Region
2013-07-26 07:07:17, -15.360, 167.585, 6.1, 132.6, Vanuatu Islands
2013-07-22 07:01:42, -46.041, 34.825, 6.1, 10.0, Prince Edward Isls Region.
2013-07-21 05:09:31, -41.713, 174.443, 6.5, 14.0, Cook Strait. New Zealand
2013-07-17 02:37:42, -15.634, -71.772, 6.0, 6.5, Southern Peru
2013-07-16 09:35:54, -6.308, 154.782, 6.0, Solomon Islands
2013-07-15 14:03:43, -60.867, -25.143, 7.3, 30.9, South Sandwich Isls Region
12013-07-07 20:30:07, -6.024, 149.747, 6.6(6.8), 61.9, New Britain Region. P.N.G
22013-07-07 18:35:30, -3.938, 153.882, 7.3(7.2), 378.7, New Ireland Region. P.N.G
2013-07-06 05:05:06, -3.249, 100.566, 6.0, 19.7, Southern Sumatra. Indonesia
2013-07-04 17:16:00, -7.039, 155.643, 6.1, 72.0, Solomon Islands
2013-07-02 07:37:02, 4.697, 96.687, 6.1, 10.0, Northern Sumatra. Indonesia


ANSS data for July (Last checked: 26 Apr 2014)

DateTime,Latitude,Longitude,Depth,Magnitude,MagType,NbStations,Gap,Distance,RMS,Source,EventID
2013/07/26 21:32:59.12,-57.7893,-23.9594,10.04,6.20,Mw,65,85,8,1.35,NEI,2013072620
2013/07/26 07:07:17.03,-15.3600,167.5858,132.61,6.10,Mw,108,54,6,0.97,NEI,2013072620
2013/07/22 07:01:42.70,-46.0417,34.8255,10.00,6.10,Mw,73,35,17,1.09,NEI,2013072220
2013/07/21 05:09:31.27,-41.7134,174.4431,14.00,6.50,Mw,106,36,0,0.89,NEI,2013072120
2013/07/17 02:37:42.80,-15.6346,-71.7729,6.59,6.00,Mw,88,37,4,1.19,NEI,2013071720
2013/07/16 09:35:54.61,-6.3085,154.7822,44.25,6.00,Mw,87,33,3,1.11,NEI,2013071620
2013/07/15 14:03:43.05,-60.8679,-25.1436,30.98,7.30,Mw,379,43,9,0.94,NEI,2013071520
12013/07/07 20:30:07.47,-6.0155,149.7215,62.03,6.60,Mw,113,22,3,0.99,NEI,2013070720
22013/07/07 18:35:30.80,-3.9234,153.9204,386.25,7.30,Mw,108,24,2,0.82,NEI,2013070720
2013/07/06 05:05:06.54,-3.2490,100.5668,19.70,6.00,Mw,111,37,3,1.15,NEI,2013070620
2013/07/04 17:16:00.07,-7.0390,155.6438,72.00,6.10,Mw,121,22,4,0.96,NEI,2013070420
2013/07/02 07:37:02.90,4.6980,96.6870,10.00,6.10,Mw,86,43,1,1.16,NEI,2013070220

June 2013‡

June 2013 Counts: Mag 6: 7 {!8} Mag 7: 0 Mag 8: 0 Mag 9: 0

Date/Time UTC,Latitude,Longitude,Magnitude,Depth(Km),Location
12013-06-24 22:04:13, 10.726, -42.616, 6.6(6.4), 9.9, Northern Mid-Atlantic Ridge
2013-06-16 21:39:09, 34.270, 25.114, 6.0(!), 26.0, Crete. Greece
Rated 5.8 by EMSC and GFZ Potsdam.
2013-06-15 17:34:29, 11.724, -86.975, 6.5, 35.8, Near Coast Of Nicaragua {Map}
2013-06-15 16:11:00, 34.448, 25.043, 6.2, 10.0, Crete. Greece {Map}
2013-06-15 11:20:34, -33.895, 179.455, 6.0, 172.4, South Of The Kermadec Isls. {Map}
2013-06-13 16:47:23, -9.989, 107.227, 6.7, 9.7, South Of Java, Indonesia {Map}
2013-06-05 04:47:29, -11.407, 166.264, 6.1, 64.6, Santa Cruz Islands. {Map}
2013-06-02 05:43:04, 23.793, 121.082, 6.2, 20.0, Taiwan {Map}


ANSS data for June (Last checked: 26 Apr 2014)

DateTime,Latitude,Longitude,Depth,Magnitude,MagType,NbStations,Gap,Distance,RMS,Source,EventID
12013/06/24 22:04:13.40,10.7010,-42.5940,10.00,6.60,Mw,111,14,9,0.81,NEI,2013062420
2013/06/16 21:39:04.50,34.2700,25.1140,26.00,6.00,Mw,634,100,1,0.00,NEI,2013061620 (Rated 5.8 by EMSC and GFZ Potsdam.)
2013/06/15 17:34:29.07,11.7246,-86.9754,35.81,6.50,Mw,222,91,1,1.63,NEI,2013061520
2013/06/15 16:11:00.26,34.4488,25.0435,10.00,6.20,Mw,87,54,2,0.95,NEI,2013061520
2013/06/15 11:20:36.00,-33.8530,179.4020,195.00,6.00,Mw,426,25,4,0.77,NEI,2013061520
2013/06/13 16:47:23.20,-9.9980,107.2430,8.60,6.70,Mw,510,25,2,0.84,NEI,2013061320
2013/06/05 04:47:26.20,-11.4010,166.2990,39.00,6.10,Mw,411,28,7,0.73,NEI,2013060520
2013/06/02 05:43:03.40,23.7940,121.1330,17.00,6.20,Mw,437,39,0,0.71,NEI,2013060220

May 2013‡

May 2013 Counts: Mag 6: 9 Mag 7: 1 Mag 8: 1 Mag 9: 0

Date/Time UTC,Latitude,Longitude,Magnitude,Depth(Km),Location
2013-05-24 14:56:31, 52.221, 151.515, 6.7, 623.0, Sea Of Okhotsk {Map}
2013-05-24 05:44:49, 54.873, 153.280, 8.3, 608.9, Sea Of Okhotsk {Map}
2013-05-23 21:07:46, -20.557, -175.738, 6.3, 154.0, Tonga Islands {Map}
2013-05-23 17:19:04, -23.025, -177.108, 7.4, 171.3, South Of The Fiji Islands {Map}
2013-05-21 05:43:21, 52.306, 159.985, 6.1, 36.6, Off East Coast of Kamchatka {Map}
2013-05-21 01:55:05, 52.469, 160.486, 6.0, 15.1, 139Km Ese Of Petropavlovsk-Kamchatskiy. Russia {Map}
2013-05-20 09:49:03, -44.927, -80.638, 6.4, 10.0, West Chile Rise {Map}
2013-05-18 05:48:00, 37.760, 141.454, 6.0, 41.4, Nr E. Coast Of Honshu. Japan {Map}
2013-05-14 00:32:25, 18.748, 145.294, 6.8, 601.7, W Of Agrihan. N. Mariana Isls. {Map}
2013-05-11 20:46:56, -17.944, -175.075, 6.4, 205.4, 139Km Nw Of Neiafu. Tonga {Map}
2013-05-11 02:08:11, 26.783, 57.880, 6.1, 14.0, 89Km Ese Of Minab. Iran {Map}
2013-05-07 10:10:55, -19.638, 175.064, 6.0, 70.1, South Of Fiji Islands {Map}


ANSS data for May (Last checked: 26 Apr 2014)

DateTime,Latitude,Longitude,Depth,Magnitude,MagType,NbStations,Gap,Distance,RMS,Source,EventID
2013/05/24 14:56:31.80,52.2220,151.5150,623.00,6.70,Mw,83,28,4,0.68,NEI,2013052420
2013/05/24 05:44:49.60,54.8740,153.2810,608.90,8.30,Mw,166,18,3,0.92,NEI,2013052420
2013/05/23 21:07:46.40,-20.5610,-175.7650,149.10,6.30,Mw,267,14,6,1.09,NEI,2013052320
2013/05/23 17:19:04.00,-23.0250,-177.1090,171.40,7.40,Mw,63,72,6,1.44,NEI,2013052320
2013/05/21 05:43:21.60,52.3070,159.9860,36.70,6.10,Mw,112,54,1,1.17,NEI,2013052120
2013/05/21 01:55:05.60,52.4690,160.4860,15.10,6.00,Mw,106,61,1,1.41,NEI,2013052120
2013/05/20 09:49:04.40,-44.8660,-80.7460,10.00,6.40,Mw,180,72,5,1.15,NEI,2013052020
2013/05/18 05:47:59.50,37.7390,141.4710,39.00,6.00,Mw,436,14,9,0.77,NEI,2013051820
2013/05/14 00:32:25.90,18.7280,145.2870,602.30,6.80,Mw,131,18,2,1.16,NEI,2013051420
2013/05/11 20:46:57.50,-17.9540,-175.0990,212.20,6.40,Mw,520,32,5,0.54,NEI,2013051120
2013/05/11 02:08:08.50,26.5600,57.7700,15.00,6.10,Mw,351,32,1,0.00,NEI,2013051120
2013/05/07 10:10:55.70,-19.6380,175.0640,70.10,6.00,Mw,113,75,7,1.10,NEI,2013050720

April 2013‡

April 2013 Counts: Mag 6: 14 Mag 7: 3 Mag 8: 0 Mag 9: 0

Date/Time UTC,Latitude,Longitude,Magnitude,Depth(Km),Location
2013-04-26 06:53:28, -28.735, -178.915, 6.2, 349.0, Kermadec Isls. Region {Map}
2013-04-23 23:14:42, -3.910, 152.126, 6.5, 16.3, New Ireland Region. P.N.G {Map}
2013-04-22 01:16:33, 18.158, -102.080, 6.0, 28.5, 21Km Ne Of Las Guacamayas. Mexico {Map}
2013-04-21 03:22:16, 29.915, 138.926, 6.1, 424.1, Izu Isls. Japan Region {Map}
2013-04-20 13:12:51, 50.139, 157.224, 6.1, 20.2, Kuril Isls. {Map}
2013-04-20 00:02:48, 30.313, 102.933, 6.6, 16.4, Western Sichuan. China {Map}
2013-04-19 19:58:40, 49.937, 157.639, 6.0, 18.6, East Of The Kuril Isls. {Map}
2013-04-19 03:05:53, 46.181, 150.796, 7.2, 122.3, Kuril Isls. {Map}
2013-04-17 12:03:31Not upgraded in ANSS, 38.484, 141.443, 6.0, 72.6, Nr. E. Coast Of Honshu. Japan {Map}
2013-04-16 22:55:27, -3.218, 142.543, 6.6, 13.0, Nr. N. Coast Of New Guinea. P.N.G {Map}
2013-04-16 10:44:20, 28.106, 62.053, 7.7, 82.0, Iran-Pakistan Border Region {Map}
2013-04-14 01:32:23, -6.479, 154.584, 6.6, 35.2, Bougainville Region. P.N.G {Map}
2013-04-13 22:49:49, -19.134, 169.637, 6.0, 270.7, Vanuatu {Map}
2013-04-09 11:52:50, 28.499, 51.590, 6.4, 10.0, Southern Iran {Map}
2013-04-06 04:42:36, -3.525, 138.466, 7.0, 68.0, Papua. Ind. {Map}
2013-04-05 13:00:02, 42.712, 131.105, 6.3, 561.9, Estn Russia-N.Estn China Border {Map}
2013-04-01 18:53:17, 39.527, 143.196, 6.0, 12.5, Off E. Coast Of Honshu. Japan {Map}


ANSS data for April (Last checked: 26 Apr 2014)

DateTime,Latitude,Longitude,Depth,Magnitude,MagType,NbStations,Gap,Distance,RMS,Source,EventID
2013/04/26 06:53:28.95,-28.7357,-178.9155,349.02,6.20,Mw,112,22,1,1.32,NEI,2013042620
Not above2013/04/26 06:53:28.90,-28.6810,-178.9160,351.00,6.10,Mw,386,14,1,0.94,NEI,2013042620
2013/04/23 23:14:42.60,-3.9130,152.1200,23.30,6.50,Mw,264,18,0,0.80,NEI,2013042320
2013/04/22 01:16:33.20,18.1270,-101.9080,30.00,6.00,Mw,596,57,2,1.01,NEI,2013042220
2013/04/21 03:22:16.20,29.9330,138.8870,421.90,6.10,Mw,688,10,3,0.78,NEI,2013042120
2013/04/20 13:12:50.60,50.1050,157.1650,18.00,6.10,Mw,440,97,3,1.03,NEI,2013042020
2013/04/20 00:02:47.50,30.3080,102.8880,14.00,6.60,Mw,548,14,6,1.08,NEI,2013042020
2013/04/19 19:58:41.00,49.9580,157.6630,20.00,6.10,Mw,593,14,3,0.79,NEI,2013041920
2013/04/19 03:05:52.80,46.2240,150.7830,112.20,7.20,Mw,767,10,6,0.84,NEI,2013041920
2013/04/16 22:55:27.00,-3.2180,142.5430,13.00,6.60,Mw,97,18,5,1.42,NEI,2013041620
2013/04/16 10:44:20.70,28.1070,62.0530,82.00,7.70,Mw,164,32,9,0.98,NEI,2013041620
2013/04/14 01:32:22.60,-6.4750,154.6070,31.00,6.60,Mw,491,10,3,0.64,NEI,2013041420
2013/04/13 22:49:50.50,-19.1410,169.5350,280.20,6.00,Mw,632,14,3,1.04,NEI,2013041320
2013/04/09 11:52:50.10,28.5000,51.5910,10.00,6.40,Mw,144,25,9,0.76,NEI,2013040920
2013/04/06 04:42:35.70,-3.5130,138.4770,66.00,7.00,Mw,506,10,6,0.82,NEI,2013040620
2013/04/05 13:00:02.10,42.7130,131.1050,561.90,6.30,Mw,95,28,2,1.03,NEI,2013040520
2013/04/01 18:53:18.57,39.5160,143.2076,20.89,6.00,Mw,521,69,2,0.63,NEI,2013040120

March 2013‡

March 2013 Counts: Mag 6: 5 Mag 7: 0 Mag 8: 0 Mag 9: 0

Date/Time UTC,Latitude,Longitude,Magnitude,Depth(Km),Location
2013-03-25 23:02:14, 14.599, -90.427, 6.2, 200.5, Guatemala {Map}
2013-03-24 08:13:44, -20.777, 173.407, 6.1, 10.0, Vanuatu Region {Map}
2013-03-10 22:51:51, -6.652, 148.154, 6.5, 28.9, New Britain Region. P.N.G {Map}
2013-03-01 13:20:50, 50.945, 157.476, 6.5, 31.7, Kuril Isls. {Map}
2013-03-01 12:53:52, 50.938, 157.511, 6.4, 40.9, Kuril Isls. {Map}


ANSS data for March (Last checked: 26 Apr 2014)

DateTime,Latitude,Longitude,Depth,Magnitude,MagType,NbStations,Gap,Distance,RMS,Source,EventID
2013/03/25 23:02:13.30,14.5960,-90.4390,189.00,6.20,Mw,681,25,0,1.32,NEI,2013032520
2013/03/24 08:13:45.10,-20.7570,173.3700,10.00,6.10,Mw,267,32,5,0.80,NEI,2013032420
2013/03/10 22:51:51.60,-6.6530,148.1550,28.90,6.50,Mw,93,18,5,1.30,NEI,2013031020
2013/03/01 13:20:50.10,50.9490,157.4480,29.00,6.50,Mw,310,43,2,0.78,NEI,2013030120
2013/03/01 12:53:52.40,50.9380,157.5110,40.90,6.40,Mw,511,86,2,0.75,NEI,2013030120

Downgrades under 6.0 for March

February 2013‡

February 2013 Counts: Mag 6: 19 Mag 7: 3 Mag 8: 1 Mag 9: 0

Date/Time UTC,Latitude,Longitude,Magnitude,Depth(Km),Location
12013-02-28 14:05:51, 50.934, 157.339, 6.9, 52.5, Kuril Isls. {Map}
22013-02-22 12:01:59, -27.993, -63.195, 6.1, 585.8, Santiago Del Estero. Argentina {Map}
2013-02-16 04:37:36, <e.?5.812, 125.762, 6.1, 105.0, Mindanao. Philippines {Map}
2013-02-14 13:13:53, 67.580, 142.592, 6.6, 10.1, N.Eastern Sakha. Russia {Map}
2013-02-10 18:39:35, -10.978, 165.444, 6.0, 35.0, Santa Cruz Isls. {Map}
2013-02-09 21:02:22, -10.964, 165.792, 6.6, 15.7, Santa Cruz Isls. {Map}
2013-02-09 14:16:06, 1.142, -77.361, 6.9, 129.3, Colombia {Map}
2013-02-08 15:26:39, -10.910, 165.964, 7.1, 27.0, Santa Cruz Isls. {Map}
2013-02-08 11:12:13, -10.903, 165.895, 6.8, 18.0, Santa Cruz Isls. {Map}
2013-02-07 18:59:16, -11.001, 165.658, 6.7, 10.0, Santa Cruz Isls. {Map}
2013-02-07 00:30:11, -11.664, 164.960, 6.0, 9.8, Santa Cruz Isls. Region {Map}
↑ 2013-02-06 11:53:54, -11.245, 165.727, 6.0, 14.0, Santa Cruz Isls. {Map}
2013-02-06 10:33:17, -10.637, 164.774, 6.0, 10.0, Santa Cruz Isls. Region {Map}
2013-02-06 06:35:19, -10.784, 164.512, 6.1, 10.1, Santa Cruz Isls. Region {Map}
2013-02-06 01:54:15, -10.513, 165.733, 7.0, 10.2, Santa Cruz Isls. {Map}
2013-02-06 01:23:19, -11.232, 164.921, 7.1, 10.1, Santa Cruz Isls. Region {Map}
2013-02-06 01:12:27, -10.737, 165.137, 8.0, 28.7, Santa Cruz Isls. {Map}
2013-02-06 00:07:22, -10.857, 165.206, 6.0, 10.0, Santa Cruz Isls. {Map}
2013-02-02 18:58:07, -10.912, 165.260, 6.0, 10.0, Santa Cruz Isls. {Map}
2013-02-02 14:17:34, 42.811, 143.078, 6.9, 103.1, Hokkaido. Japan Region {Map}
2013-02-01 22:18:35, -11.063, 165.326, 6.4, 22.0, Santa Cruz Isls. {Map}
2013-02-01 22:16:36, -10.926, 165.450, 6.3, 19.9, Santa Cruz Isls. {Map}
2013-02-01 05:36:40, -11.090, 165.537, 6.0, 9.4, Santa Cruz Isls. {Map}


ANSS data for February (Last checked: 25 Apr 2014)

DateTime,Latitude,Longitude,Depth,Magnitude,MagType,NbStations,Gap,Distance,RMS,Source,EventID
12013/02/28 14:05:50.40,50.9420,157.3390,41.00,6.90,Mw,425,68,2,0.78,NEI,2013022820
22013/02/22 12:01:59.20,-27.9930,-63.1950,585.80,6.10,Mw,534,21,5,0.89,NEI,2013022220
2013/02/16 04:37:36.20,5.8120,125.7480,105.00,6.10,Mw,513,18,1,0.76,NEI,2013021620
2013/02/14 13:13:52.80,67.5820,142.5640,9.90,6.60,Mw,665,14,6,1.27,NEI,2013021420
2013/02/10 18:39:32.30,-10.9590,165.4590,11.00,6.00,Mw,160,50,6,0.96,NEI,2013021020
2013/02/09 21:02:22.50,-10.9520,165.8380,15.60,6.60,Mw,393,18,6,1.08,NEI,2013020920
2013/02/09 14:16:07.90,1.1420,-77.4000,145.00,6.90,Mw,495,25,1,0.89,NEI,2013020920
2013/02/08 15:26:38.50,-10.9320,166.0210,21.00,7.10,Mw,267,28,6,0.85,NEI,2013020820
2013/02/08 11:12:13.00,-10.9050,165.8860,15.90,6.80,Mw,348,18,6,1.05,NEI,2013020820
2013/02/07 18:59:16.10,-11.0010,165.6580,10.00,6.70,Mw,341,39,6,0.86,NEI,2013020720
2013/02/07 00:30:10.70,-11.6580,164.9400,8.00,6.00,Mw,343,25,5,0.77,NEI,2013020720
2013/02/06 11:53:55.20,-11.2450,165.7270,14.00,6.00,Mw,265,72,6,0.82,NEI,2013020620
2013/02/06 10:33:17.40,-10.6430,164.7640,10.00,6.00,Mw,279,28,5,0.97,NEI,2013020620
2013/02/06 06:35:19.80,-10.7840,164.5120,10.10,6.10,Mw,273,39,5,1.16,NEI,2013020620
2013/02/06 01:54:15.20,-10.4790,165.7720,9.80,7.00,Mw,414,18,6,1.37,NEI,2013020620
2013/02/06 01:23:19.77,-11.2541,164.9323,10.14,7.10,Mw,560,17,5,1.39,NEI,2013020620
2013/02/06 01:12:27.00,-10.7380,165.1380,28.70,8.00,Mw,332,18,5,1.28,NEI,2013020620
2013/02/06 00:07:22.30,-10.8650,165.2480,12.60,6.00,Mw,341,28,5,0.58,NEI,2013020620
2013/02/02 18:58:05.80,-10.9380,165.2550,3.20,6.00,Mw,321,39,5,0.81,NEI,2013020220
2013/02/02 14:17:35.10,42.7580,143.1060,107.00,6.90,Mw,496,36,1,0.84,NEI,2013020220
2013/02/01 22:18:33.00,-11.1200,165.3780,10.00,6.40,Mw,158,28,6,1.30,NEI,2013020120
2013/02/01 22:16:34.10,-10.8960,165.3790,10.00,6.30,Mw,309,28,6,1.31,NEI,2013020120
2013/02/01 05:36:41.70,-11.1040,165.5320,15.00,6.00,Mw,313,28,6,0.92,NEI,2013020120

Downgrades under 6.0 for February

  • ↓ I said "Note: The details below I am NOT entering yet as a Mag 6+ as the USGS data clearly shows it is not despite what the site may say.
    2013-02-28 03:09:44, -17.770, 167.340, 6.1, 15.1, Vanuatu"
    Today 08 Mar 2013 it was downgraded to 5.9
  • ↓ 2013-02-18 12:19:19, -30.682, -178.127, 5.9 was 6.1, 34.1, Kermadec Isls. Nz {Map}
  • ↓ 2013-02-07 08:03:41, -11.024, 164.749, 5.9 was 6.1, 10.0, Santa Cruz Isls. {Map}
  • ↓ 2013-02-06 13:54:53, -10.797, 166.492, 5.8 was 6.0, 10.1, Santa Cruz Isls. {Map}

January 2013‡

January 2013 Counts: Mag 6: 6 Mag 7: 1 Mag 8: 0 Mag 9: 0

Date/Time UTC,Latitude,Longitude,Magnitude,Depth(Km),Location
2013-01-31 03:33:43, -10.627, 166.382, 6.1, 9.2, Santa Cruz Isls. {Map}
2013-01-30 23:03:45, -10.518, 166.486, 6.1, 10.0, Santa Cruz Isls. {Map}
2013-01-30 20:15:43, -28.181, -70.800, 6.8, 45.7, Atacama. Chile {Map}
2013-01-28 16:38:53, 42.603, 79.695, 6.1, 10.9, Eastern Kazakhstan {Map}
↑ 2013-01-21 22:22:54, 4.961, 96.082, 6.1, 16.6, Northern Sumatra. Ind. {Map}
The above quake was uplifted some time after 30 days to 6.1 from the original 5.9. No details other than this are available (on USGS) but you can find data on EMSC and GFZ Potsdam
2013-01-15 16:09:36, -62.566, -161.345, 6.1, 10.0, Pacific-Antarctic Ridge {Map}
2013-01-05 08:58:19, 55.368, -134.621, 7.5, 9.8, S.Eastern Alaska {Map}


ANSS data for January (Last checked: 26 Apr 2014)

DateTime,Latitude,Longitude,Depth,Magnitude,MagType,NbStations,Gap,Distance,RMS,Source,EventID
2013/01/31 03:33:43.80,-10.6280,166.3820,9.20,6.10,Mw,393,25,6,0.82,NEI,2013013120
2013/01/30 23:03:43.80,-10.6350,166.3710,11.00,6.10,Mw,301,28,6,0.92,NEI,2013013020
2013/01/30 20:15:43.20,-28.0800,-70.6210,45.00,6.80,Mw,531,25,1,1.01,NEI,2013013020
2013/01/28 16:38:53.50,42.6050,79.7080,15.00,6.10,Mw,548,14,1,0.76,NEI,2013012820
2013/01/21 22:22:52.90,4.9660,95.8560,11.60,6.10,Mw,479,18,1,1.16,NEI,2013012120
2013/01/15 16:09:37.08,-62.5710,-161.4320,10.00,6.10,Mw,75,40,,1.13,NEI,2013011520
2013/01/05 08:58:19.33,55.3940,-134.6500,10.00,7.50,Mw,659,28,,1.27,NEI,2013010520

Downgrades under 6.0 for January

  • ↓ 2013-01-31 09:53:43, 55.584, -134.745, 5.9 was 6.0, 9.7, S.Eastern Alaska {Map}

Leave a Reply (All Comments are moderated by a human)

Fill in your details below or click an icon to log in:

WordPress.com Logo

You are commenting using your WordPress.com account. Log Out / Change )

Twitter picture

You are commenting using your Twitter account. Log Out / Change )

Facebook photo

You are commenting using your Facebook account. Log Out / Change )

Google+ photo

You are commenting using your Google+ account. Log Out / Change )

Connecting to %s